createdAt,value
2022-09-29T00:01:01.404Z,87.10
2022-09-29T00:03:39.638Z,87.10
2022-09-29T00:06:24.234Z,87.00
2022-09-29T00:08:52.404Z,87.00
2022-09-29T00:11:20.967Z,87.10
2022-09-29T00:14:01.906Z,87.10
2022-09-29T00:16:33.985Z,87.10
2022-09-29T00:19:05.026Z,87.20
2022-09-29T00:21:35.811Z,87.10
2022-09-29T00:24:03.331Z,87.30
2022-09-29T00:26:33.448Z,87.20
2022-09-29T00:29:12.989Z,87.30
2022-09-29T00:31:45.695Z,87.30
2022-09-29T00:34:12.982Z,87.30
2022-09-29T00:36:49.097Z,87.20
2022-09-29T00:39:24.923Z,87.20
2022-09-29T00:42:00.079Z,87.20
2022-09-29T00:45:07.997Z,87.30
2022-09-29T00:47:38.799Z,87.20
2022-09-29T00:50:36.827Z,87.20
2022-09-29T00:53:14.682Z,87.20
2022-09-29T00:56:10.673Z,87.20
2022-09-29T00:58:57.169Z,87.20
2022-09-29T01:01:28.696Z,87.20
2022-09-29T01:04:26.029Z,87.30
2022-09-29T01:07:07.497Z,87.40
2022-09-29T01:09:40.378Z,87.30
2022-09-29T01:12:11.176Z,87.30
2022-09-29T01:14:49.244Z,87.30
2022-09-29T01:17:19.473Z,87.20
2022-09-29T01:19:55.794Z,87.10
2022-09-29T01:23:05.052Z,87.10
2022-09-29T01:26:06.210Z,87.00
2022-09-29T01:28:57.813Z,87.10
2022-09-29T01:31:54.953Z,87.00
2022-09-29T01:34:50.655Z,87.20
2022-09-29T01:37:54.568Z,87.20
2022-09-29T01:40:59.648Z,87.30
2022-09-29T01:43:47.289Z,87.30
2022-09-29T01:46:23.833Z,87.40
2022-09-29T01:49:01.069Z,87.30
2022-09-29T01:51:41.095Z,87.40
2022-09-29T01:54:45.536Z,87.30
2022-09-29T01:57:22.123Z,87.30
2022-09-29T02:00:14.502Z,87.30
2022-09-29T02:03:05.284Z,87.20
2022-09-29T02:05:34.730Z,87.30
2022-09-29T02:08:28.466Z,87.20
2022-09-29T02:11:09.452Z,87.20
2022-09-29T02:13:46.478Z,87.30
2022-09-29T02:16:25.965Z,87.20
2022-09-29T02:19:38.276Z,87.30
2022-09-29T02:22:06.408Z,87.20
2022-09-29T02:24:39.416Z,87.30
2022-09-29T02:27:23.281Z,87.30
2022-09-29T02:30:03.184Z,87.30
2022-09-29T02:32:36.356Z,87.30
2022-09-29T02:35:15.641Z,87.30
2022-09-29T02:37:55.176Z,87.20
2022-09-29T02:40:38.565Z,87.30
2022-09-29T02:43:25.246Z,87.30
2022-09-29T02:46:09.303Z,87.40
2022-09-29T02:48:47.467Z,87.30
2022-09-29T02:51:21.735Z,87.50
2022-09-29T02:54:22.654Z,87.40
2022-09-29T02:57:07.819Z,87.30
2022-09-29T02:59:40.306Z,87.40
2022-09-29T03:02:11.248Z,87.50
2022-09-29T03:04:38.920Z,87.50
2022-09-29T03:07:08.822Z,87.50
2022-09-29T03:09:44.808Z,87.20
2022-09-29T03:12:18.678Z,87.30
2022-09-29T03:14:50.261Z,87.20
2022-09-29T03:17:20.905Z,87.00
2022-09-29T03:19:50.894Z,86.70
2022-09-29T03:22:20.417Z,86.70
2022-09-29T03:24:49.135Z,86.40
2022-09-29T03:27:17.785Z,86.30
2022-09-29T03:32:53.363Z,86.30
2022-09-29T03:35:25.131Z,86.00
2022-09-29T03:38:01.536Z,86.10
2022-09-29T03:40:29.659Z,86.10
2022-09-29T03:42:59.227Z,86.20
2022-09-29T03:45:33.250Z,86.00
2022-09-29T03:48:04.226Z,85.60
2022-09-29T03:50:37.331Z,85.80
2022-09-29T03:53:08.725Z,85.90
2022-09-29T03:55:49.139Z,85.60
2022-09-29T03:58:19.949Z,85.40
2022-09-29T04:00:58.444Z,85.40
2022-09-29T04:03:27.652Z,85.50
2022-09-29T04:05:58.393Z,85.30
2022-09-29T04:08:50.614Z,85.60
2022-09-29T04:11:27.114Z,85.60
2022-09-29T04:13:59.754Z,86.00
2022-09-29T04:16:27.875Z,86.00
2022-09-29T04:18:55.772Z,86.00
2022-09-29T04:21:23.879Z,86.00
2022-09-29T04:24:06.708Z,85.80
2022-09-29T04:27:04.491Z,85.80
2022-09-29T04:29:33.869Z,86.00
2022-09-29T04:32:01.661Z,86.10
2022-09-29T04:34:29.006Z,86.20
2022-09-29T04:37:00.280Z,86.30
2022-09-29T04:39:33.274Z,86.50
2022-09-29T04:42:06.729Z,86.40
2022-09-29T04:44:41.106Z,86.80
2022-09-29T04:47:13.437Z,86.80
2022-09-29T04:49:44.820Z,86.80
2022-09-29T04:52:15.849Z,86.90
2022-09-29T04:54:48.140Z,86.90
2022-09-29T04:57:20.580Z,87.00
2022-09-29T04:59:55.338Z,86.90
2022-09-29T05:02:23.356Z,87.10
2022-09-29T05:04:53.679Z,87.20
2022-09-29T05:07:30.919Z,87.30
2022-09-29T05:09:58.357Z,87.40
2022-09-29T05:12:38.532Z,87.20
2022-09-29T05:15:25.970Z,87.50
2022-09-29T05:18:01.719Z,87.80
2022-09-29T05:20:36.805Z,87.80
2022-09-29T05:23:11.896Z,88.00
2022-09-29T05:25:51.539Z,88.10
2022-09-29T05:28:19.431Z,88.30
2022-09-29T05:30:52.987Z,87.90
2022-09-29T05:33:29.457Z,88.20
2022-09-29T05:36:07.123Z,88.10
2022-09-29T05:38:41.673Z,88.20
2022-09-29T05:41:25.195Z,88.30
2022-09-29T05:44:18.637Z,88.50
2022-09-29T05:46:47.894Z,88.30
2022-09-29T05:49:21.901Z,88.40
2022-09-29T05:51:53.571Z,88.30
2022-09-29T05:54:39.321Z,88.20
2022-09-29T05:57:08.568Z,88.00
2022-09-29T05:59:38.536Z,87.70
2022-09-29T06:02:13.372Z,87.70
2022-09-29T06:05:08.432Z,87.60
2022-09-29T06:07:59.965Z,87.70
2022-09-29T06:10:46.620Z,87.90
2022-09-29T06:13:26.077Z,88.00
2022-09-29T06:16:00.183Z,88.00
2022-09-29T06:18:33.066Z,87.60
2022-09-29T06:21:12.118Z,87.40
2022-09-29T06:23:44.028Z,87.10
2022-09-29T06:26:25.851Z,86.90
2022-09-29T06:29:09.605Z,87.40
2022-09-29T06:31:42.595Z,86.70
2022-09-29T06:34:27.922Z,86.70
2022-09-29T06:37:35.760Z,86.10
2022-09-29T06:40:12.792Z,85.80
2022-09-29T06:45:25.544Z,85.80
2022-09-29T06:48:00.857Z,85.50
2022-09-29T06:50:30.907Z,85.70
2022-09-29T06:53:04.341Z,85.20
2022-09-29T06:55:40.972Z,84.90
2022-09-29T06:58:15.583Z,84.40
2022-09-29T07:01:07.332Z,84.50
2022-09-29T07:03:50.833Z,84.40
2022-09-29T07:06:38.090Z,84.10
2022-09-29T07:09:29.679Z,84.10
2022-09-29T07:11:58.453Z,83.60
2022-09-29T07:14:34.810Z,83.40
2022-09-29T07:17:05.667Z,83.70
2022-09-29T07:19:38.872Z,83.70
2022-09-29T07:22:10.055Z,83.40
2022-09-29T07:24:51.301Z,82.90
2022-09-29T07:27:24.419Z,82.70
2022-09-29T07:30:04.439Z,82.80
2022-09-29T07:32:37.246Z,83.10
2022-09-29T07:35:13.649Z,82.80
2022-09-29T07:37:57.140Z,83.60
2022-09-29T07:41:04.271Z,84.00
2022-09-29T07:43:48.398Z,84.50
2022-09-29T07:46:35.462Z,85.10
2022-09-29T07:49:11.161Z,85.10
2022-09-29T07:52:44.567Z,85.10
2022-09-29T07:55:58.059Z,85.00
2022-09-29T07:59:33.499Z,85.00
2022-09-29T08:06:29.313Z,84.50
2022-09-29T08:09:12.758Z,83.60
2022-09-29T08:11:46.823Z,83.20
2022-09-29T08:15:02.488Z,82.90
2022-09-29T08:17:43.941Z,82.70
2022-09-29T08:20:30.743Z,82.70
2022-09-29T08:23:23.709Z,82.40
2022-09-29T08:26:24.030Z,82.40
2022-09-29T08:29:14.373Z,81.50
2022-09-29T08:32:25.736Z,81.40
2022-09-29T08:35:05.379Z,81.30
2022-09-29T08:37:38.365Z,81.20
2022-09-29T08:40:36.414Z,81.90
2022-09-29T08:47:59.138Z,82.30
2022-09-29T08:51:05.189Z,82.80
2022-09-29T08:58:01.167Z,85.00
2022-09-29T09:01:25.512Z,85.30
2022-09-29T09:07:31.953Z,85.00
2022-09-29T09:10:24.485Z,85.10
2022-09-29T09:13:12.467Z,84.80
2022-09-29T09:16:05.876Z,84.10
2022-09-29T09:23:36.189Z,84.00
2022-09-29T09:26:23.698Z,84.70
2022-09-29T09:29:41.896Z,84.70
2022-09-29T09:32:34.041Z,84.90
2022-09-29T09:35:46.585Z,84.90
2022-09-29T09:38:44.320Z,84.70
2022-09-29T09:41:43.051Z,84.90
2022-09-29T09:44:34.557Z,84.20
2022-09-29T09:47:44.608Z,84.70
2022-09-29T09:50:31.206Z,84.40
2022-09-29T09:53:32.248Z,84.10
2022-09-29T09:57:03.306Z,85.10
2022-09-29T09:59:57.474Z,85.90
2022-09-29T10:02:57.446Z,85.90
2022-09-29T10:06:01.618Z,86.00
2022-09-29T10:11:51.370Z,85.70
2022-09-29T10:17:33.899Z,85.20
2022-09-29T10:20:08.038Z,85.00
2022-09-29T10:22:40.078Z,84.80
2022-09-29T10:25:37.605Z,85.00
2022-09-29T10:28:31.188Z,85.20
2022-09-29T10:31:19.327Z,85.00
2022-09-29T10:37:07.666Z,83.50
2022-09-29T10:40:56.870Z,83.30
2022-09-29T10:43:34.697Z,83.30
2022-09-29T10:46:49.531Z,81.80
2022-09-29T10:49:29.919Z,82.20
2022-09-29T10:52:36.354Z,82.80
2022-09-29T10:58:52.602Z,81.20
2022-09-29T11:04:53.781Z,79.70
2022-09-29T11:07:24.051Z,79.70
2022-09-29T11:09:58.214Z,79.30
2022-09-29T11:12:39.608Z,79.30
2022-09-29T11:16:02.424Z,79.50
2022-09-29T11:18:53.262Z,79.40
2022-09-29T11:21:43.460Z,79.20
2022-09-29T11:24:38.349Z,78.20
2022-09-29T11:27:41.244Z,78.20
2022-09-29T11:31:06.790Z,78.50
2022-09-29T11:34:09.176Z,77.40
2022-09-29T11:40:16.573Z,77.60
2022-09-29T11:51:13.046Z,78.10
2022-09-29T11:54:09.024Z,78.40
2022-09-29T11:57:52.767Z,78.40
2022-09-29T12:01:19.572Z,78.80
2022-09-29T12:04:26.276Z,79.00
2022-09-29T12:07:31.464Z,79.30
2022-09-29T12:10:28.909Z,79.60
2022-09-29T12:13:26.074Z,79.60
2022-09-29T12:16:08.470Z,79.40
2022-09-29T12:18:54.489Z,79.40
2022-09-29T12:21:57.450Z,79.60
2022-09-29T12:24:31.382Z,79.60
2022-09-29T12:27:00.283Z,79.60
2022-09-29T12:29:46.126Z,79.40
2022-09-29T12:32:43.854Z,79.40
2022-09-29T12:35:49.545Z,79.10
2022-09-29T12:38:23.263Z,79.20
2022-09-29T12:41:28.016Z,79.20
2022-09-29T12:44:06.641Z,79.10
2022-09-29T12:47:52.501Z,79.50
2022-09-29T12:50:46.279Z,79.60
2022-09-29T12:54:00.585Z,79.20
2022-09-29T12:56:52.877Z,79.00
2022-09-29T13:00:03.775Z,79.40
2022-09-29T13:03:27.943Z,79.50
2022-09-29T13:06:24.798Z,79.70
2022-09-29T13:09:40.127Z,79.70
2022-09-29T13:12:44.102Z,80.00
2022-09-29T13:16:01.143Z,80.20
2022-09-29T13:19:06.823Z,80.40
2022-09-29T13:22:22.513Z,79.90
2022-09-29T13:24:56.756Z,80.00
2022-09-29T13:27:28.129Z,79.60
2022-09-29T13:30:34.947Z,79.80
2022-09-29T13:33:27.691Z,79.90
2022-09-29T13:36:41.433Z,79.60
2022-09-29T13:39:40.688Z,79.10
2022-09-29T13:42:43.088Z,79.10
2022-09-29T13:45:51.616Z,79.00
2022-09-29T13:52:01.946Z,78.20
2022-09-29T13:55:23.802Z,78.20
2022-09-29T13:57:57.121Z,78.80
2022-09-29T14:04:23.566Z,78.80
2022-09-29T14:06:55.411Z,78.90
2022-09-29T14:09:24.158Z,78.80
2022-09-29T14:11:57.261Z,78.80
2022-09-29T14:14:47.932Z,78.70
2022-09-29T14:17:40.684Z,78.10
2022-09-29T14:20:28.538Z,78.30
2022-09-29T14:23:13.200Z,78.00
2022-09-29T14:26:01.068Z,78.10
2022-09-29T14:28:44.164Z,77.90
2022-09-29T14:31:28.895Z,78.20
2022-09-29T14:34:10.696Z,78.20
2022-09-29T14:37:04.838Z,78.20
2022-09-29T14:40:06.212Z,78.10
2022-09-29T14:42:49.005Z,78.00
2022-09-29T14:49:49.391Z,78.10
2022-09-29T14:52:43.165Z,78.10
2022-09-29T14:56:07.238Z,78.00
2022-09-29T14:59:11.047Z,78.00
2022-09-29T15:02:27.086Z,78.20
2022-09-29T15:05:01.544Z,78.60
2022-09-29T15:07:56.790Z,78.70
2022-09-29T15:10:51.197Z,78.90
2022-09-29T15:13:58.325Z,79.00
2022-09-29T15:17:06.948Z,78.90
2022-09-29T15:26:47.231Z,78.70
2022-09-29T15:29:22.583Z,78.70
2022-09-29T15:34:56.052Z,78.70
2022-09-29T15:37:24.677Z,78.80
2022-09-29T15:40:04.814Z,79.00
2022-09-29T15:42:57.416Z,79.00
2022-09-29T15:45:31.915Z,79.10
2022-09-29T15:48:08.551Z,79.20
2022-09-29T15:50:44.855Z,79.40
2022-09-29T15:56:23.278Z,79.50
2022-09-29T15:58:58.198Z,79.70
2022-09-29T16:01:32.665Z,79.70
2022-09-29T16:04:03.229Z,79.70
2022-09-29T16:06:38.362Z,80.00
2022-09-29T16:09:16.422Z,80.40
2022-09-29T16:11:54.414Z,80.50
2022-09-29T16:14:41.821Z,81.10
2022-09-29T16:17:13.240Z,81.20
2022-09-29T16:19:54.790Z,81.20
2022-09-29T16:22:32.189Z,81.80
2022-09-29T16:25:13.516Z,82.10
2022-09-29T16:28:04.442Z,82.50
2022-09-29T16:31:08.038Z,83.10
2022-09-29T16:33:45.169Z,83.20
2022-09-29T16:36:36.989Z,83.50
2022-09-29T16:39:19.828Z,83.60
2022-09-29T16:41:56.636Z,83.80
2022-09-29T16:44:34.689Z,84.30
2022-09-29T16:47:10.858Z,84.60
2022-09-29T16:52:54.689Z,85.00
2022-09-29T16:55:34.689Z,85.10
2022-09-29T16:58:37.831Z,85.20
2022-09-29T17:01:19.860Z,85.30
2022-09-29T17:04:14.221Z,85.60
2022-09-29T17:06:49.990Z,86.10
2022-09-29T17:09:29.925Z,87.10
2022-09-29T17:12:00.291Z,86.50
2022-09-29T17:14:32.587Z,86.60
2022-09-29T17:17:13.188Z,86.70
2022-09-29T17:19:48.955Z,86.70
2022-09-29T17:22:30.198Z,87.10
2022-09-29T17:25:12.849Z,87.20
2022-09-29T17:28:02.353Z,87.00
2022-09-29T17:30:36.483Z,87.20
2022-09-29T17:33:10.683Z,87.20
2022-09-29T17:35:41.216Z,87.50
2022-09-29T17:38:15.366Z,87.90
2022-09-29T17:41:03.997Z,88.30
2022-09-29T17:43:32.362Z,88.80
2022-09-29T17:46:03.902Z,89.50
2022-09-29T17:48:40.039Z,90.00
2022-09-29T17:51:19.039Z,89.80
2022-09-29T17:54:09.833Z,90.00
2022-09-29T17:56:44.319Z,90.30
2022-09-29T17:59:17.976Z,90.40
2022-09-29T18:01:45.635Z,90.50
2022-09-29T18:04:20.990Z,90.60
2022-09-29T18:06:52.200Z,90.90
2022-09-29T18:09:23.934Z,91.10
2022-09-29T18:11:55.350Z,91.30
2022-09-29T18:14:36.688Z,91.20
2022-09-29T18:17:06.453Z,91.40
2022-09-29T18:19:40.054Z,91.30
2022-09-29T18:22:11.393Z,91.10
2022-09-29T18:24:41.430Z,90.90
2022-09-29T18:27:14.973Z,90.90
2022-09-29T18:29:47.205Z,90.70
2022-09-29T18:32:28.259Z,90.70
2022-09-29T18:34:56.578Z,90.60
2022-09-29T18:37:24.529Z,90.50
2022-09-29T18:40:15.297Z,90.60
2022-09-29T18:43:12.991Z,90.40
2022-09-29T18:45:50.174Z,90.30
2022-09-29T18:48:23.256Z,90.50
2022-09-29T18:51:01.538Z,90.40
2022-09-29T18:53:29.322Z,90.20
2022-09-29T18:56:02.551Z,90.10
2022-09-29T18:58:30.928Z,90.10
2022-09-29T19:01:05.958Z,89.90
2022-09-29T19:03:34.026Z,89.50
2022-09-29T19:06:05.899Z,89.40
2022-09-29T19:08:38.999Z,89.40
2022-09-29T19:11:08.712Z,89.20
2022-09-29T19:13:41.085Z,89.00
2022-09-29T19:16:12.326Z,88.90
2022-09-29T19:18:44.152Z,88.80
2022-09-29T19:21:15.812Z,88.80
2022-09-29T19:23:46.877Z,88.80
2022-09-29T19:26:20.562Z,88.80
2022-09-29T19:28:54.126Z,88.80
2022-09-29T19:31:22.730Z,88.80
2022-09-29T19:33:55.748Z,88.80
2022-09-29T19:36:24.054Z,88.80
2022-09-29T19:39:02.068Z,88.60
2022-09-29T19:41:36.039Z,88.50
2022-09-29T19:44:05.503Z,88.60
2022-09-29T19:46:37.149Z,88.40
2022-09-29T19:49:16.170Z,88.20
2022-09-29T19:51:53.767Z,88.00
2022-09-29T19:54:25.482Z,88.10
2022-09-29T19:56:59.589Z,88.00
2022-09-29T19:59:40.079Z,88.00
2022-09-29T20:02:15.072Z,87.80
2022-09-29T20:04:43.960Z,87.80
2022-09-29T20:07:14.646Z,87.80
2022-09-29T20:09:42.062Z,87.60
2022-09-29T20:12:10.323Z,87.60
2022-09-29T20:14:39.873Z,87.70
2022-09-29T20:17:15.853Z,87.80
2022-09-29T20:19:45.905Z,87.90
2022-09-29T20:22:14.139Z,87.90
2022-09-29T20:24:44.035Z,87.70
2022-09-29T20:27:17.304Z,87.60
2022-09-29T20:29:51.569Z,87.60
2022-09-29T20:32:22.705Z,87.60
2022-09-29T20:34:55.630Z,87.40
2022-09-29T20:37:23.465Z,87.40
2022-09-29T20:39:52.923Z,87.40
2022-09-29T20:42:23.706Z,87.30
2022-09-29T20:44:56.484Z,87.30
2022-09-29T20:47:35.294Z,87.20
2022-09-29T20:50:05.644Z,87.10
2022-09-29T20:52:35.648Z,87.30
2022-09-29T20:55:05.712Z,87.20
2022-09-29T20:57:34.384Z,87.10
2022-09-29T21:00:02.363Z,87.30
2022-09-29T21:02:32.386Z,87.20
2022-09-29T21:05:03.406Z,87.30
2022-09-29T21:07:37.220Z,87.40
2022-09-29T21:10:14.390Z,87.40
2022-09-29T21:12:45.196Z,87.60
2022-09-29T21:15:19.017Z,87.80
2022-09-29T21:17:52.101Z,87.70
2022-09-29T21:20:19.874Z,88.00
2022-09-29T21:22:47.416Z,87.80
2022-09-29T21:25:17.722Z,87.90
2022-09-29T21:27:49.920Z,87.90
2022-09-29T21:30:22.865Z,87.90
2022-09-29T21:32:55.883Z,88.10
2022-09-29T21:35:27.780Z,88.20
2022-09-29T21:37:59.604Z,88.20
2022-09-29T21:40:26.721Z,88.30
2022-09-29T21:42:54.920Z,88.30
2022-09-29T21:45:26.901Z,88.40
2022-09-29T21:48:11.961Z,88.50
2022-09-29T21:50:46.008Z,88.60
2022-09-29T21:53:13.737Z,88.70
2022-09-29T21:55:44.530Z,88.90
2022-09-29T21:58:12.098Z,88.90
2022-09-29T22:00:39.586Z,88.90
2022-09-29T22:03:12.360Z,88.70
2022-09-29T22:05:43.161Z,88.70
2022-09-29T22:08:13.508Z,88.80
2022-09-29T22:10:43.841Z,88.70
2022-09-29T22:13:16.283Z,88.70
2022-09-29T22:15:47.241Z,88.50
2022-09-29T22:18:16.456Z,88.60
2022-09-29T22:20:49.967Z,88.60
2022-09-29T22:23:22.185Z,88.50
2022-09-29T22:26:09.036Z,88.50
2022-09-29T22:28:48.363Z,88.80
2022-09-29T22:31:15.986Z,88.80
2022-09-29T22:33:45.064Z,88.90
2022-09-29T22:36:20.748Z,89.20
2022-09-29T22:38:51.016Z,89.30
2022-09-29T22:41:26.989Z,89.30
2022-09-29T22:43:58.338Z,89.20
2022-09-29T22:46:33.478Z,89.30
2022-09-29T22:49:06.012Z,89.40
2022-09-29T22:51:33.691Z,89.20
2022-09-29T22:54:16.582Z,89.30
2022-09-29T22:56:43.740Z,89.30
2022-09-29T22:59:13.621Z,89.10
2022-09-29T23:01:41.700Z,89.00
2022-09-29T23:04:11.786Z,88.90
2022-09-29T23:06:44.775Z,88.80
2022-09-29T23:09:15.979Z,88.90
2022-09-29T23:11:52.216Z,89.00
2022-09-29T23:14:28.490Z,89.00
2022-09-29T23:16:56.603Z,89.00
2022-09-29T23:19:33.436Z,89.10
2022-09-29T23:22:02.234Z,89.10
2022-09-29T23:24:30.273Z,89.00
2022-09-29T23:29:40.162Z,89.40
2022-09-29T23:32:07.971Z,89.40
2022-09-29T23:34:36.666Z,89.40
2022-09-29T23:37:05.264Z,89.30
2022-09-29T23:39:33.550Z,89.40
2022-09-29T23:42:02.111Z,89.50
2022-09-29T23:44:32.012Z,89.40
2022-09-29T23:47:07.158Z,89.30
2022-09-29T23:49:35.552Z,89.30
2022-09-29T23:52:09.894Z,89.40
2022-09-29T23:54:45.415Z,89.30
2022-09-29T23:57:20.571Z,89.30
2022-09-29T23:59:50.631Z,89.20
